Strathmore (D.J. Murray) Airport

CDJ5 · 艾伯塔, 加拿大

罗盘
风向 的 风向 240°
风: 8 kt, 3 beaufort

添加一条跑道以查看侧风和逆风信息。

添置 跑道
0 6.000 12.000 18.000 24.000 30.000
SCT 25.000 ft
METAR CYYC 090800Z 24008KT 15SM SCT250 M06/M10 A2960 RMK CI3 SLP079

METAR Strathmore (D.J. Murray) Airport - CDJ5

Strathmore (D.J. Murray) Airport是,加拿大中的小机场。 视场标高为3.150 ft。 该领域的国际民航组织标志是CDJ5.

这份报告是针对2022年12月9日 01:00, 当地时间在Calgary International Airport进行的。

机场观察

风向为240°,速度为8 kt。

可见度为15 mi。

有疏云,零星散落的云朵在25.000 ft的高度。 没有观察到天花板。

温度为-6 °C,阵风为-14 °C。 露点为-10 °C,相对湿度为74%。 海平面上的气压为29,60 inHg (QNH)。

白天

今天,太阳从08:26升起,在16:27降落。 这适用于Strathmore (D.J. Murray) Airport,世界夏令时可能有所不同。 当地时间与世界标准时间之间的时差为-7 小时。 当前,没有夏令时有效。

公司介绍

我们没有关于这个机场的公司信息。

体会

到Vliegles.nl去找飞行课程,跳伞和其他飞行体验。 浏览页面,了解Strathmore (D.J. Murray) Airport附近所有可用的活动。 你也可以使用搜索功能来寻找你所在地附近的特定飞行课程、跳伞或其他飞行体验。

乌云

25.000 ft SCT 疏云,零星散落的云朵

温度 & 天气

温度 -6 °C
露点 -10 °C
相对湿度 74%
风寒 -14 °C
Kp-index 0 (0-9)

评论

SLP079海平面压力为29,76 inHg (29,76 inHg)
CI3

白天

日出
08:27 (6:18)
中午
12:28
日落
16:29

小工具

你想在你的网站上有一个关于Strathmore (D.J. Murray) Airport的当前航空天气(METAR)的小部件吗?

显示HTML代码

我们和第三方通过cookies跟踪您在我们网站上的互联网行为。如果你继续,我们认为你同意我们的饼干政策